createdAt,value
2018-04-13T00:00:05.232Z,14.71
2018-04-13T00:01:05.240Z,14.71
2018-04-13T00:02:05.197Z,14.74
2018-04-13T00:03:05.207Z,14.81
2018-04-13T00:04:05.221Z,14.80
2018-04-13T00:05:05.184Z,14.71
2018-04-13T00:06:05.131Z,14.62
2018-04-13T00:07:05.112Z,14.67
2018-04-13T00:08:05.096Z,14.69
2018-04-13T00:09:05.125Z,14.74
2018-04-13T00:10:05.091Z,14.69
2018-04-13T00:11:05.055Z,14.56
2018-04-13T00:12:05.064Z,14.68
2018-04-13T00:13:05.039Z,14.61
2018-04-13T00:14:05.037Z,14.52
2018-04-13T00:15:05.042Z,14.61
2018-04-13T00:16:04.978Z,14.68
2018-04-13T00:17:04.977Z,14.57
2018-04-13T00:18:04.990Z,14.68
2018-04-13T00:19:04.942Z,14.68
2018-04-13T00:20:04.957Z,14.62
2018-04-13T00:21:04.905Z,14.64
2018-04-13T00:22:04.925Z,14.60
2018-04-13T00:23:04.874Z,14.57
2018-04-13T00:24:04.878Z,14.61
2018-04-13T00:25:04.840Z,14.62
2018-04-13T00:26:04.825Z,14.61
2018-04-13T00:27:04.813Z,14.62
2018-04-13T00:28:04.818Z,14.64
2018-04-13T00:29:04.830Z,14.67
2018-04-13T00:30:04.768Z,14.62
2018-04-13T00:31:04.766Z,14.50
2018-04-13T00:32:04.744Z,14.49
2018-04-13T00:33:04.733Z,14.38
2018-04-13T00:34:04.707Z,14.37
2018-04-13T00:35:04.695Z,14.38
2018-04-13T00:36:04.706Z,14.38
2018-04-13T00:37:04.669Z,14.43
2018-04-13T00:38:04.649Z,14.49
2018-04-13T00:39:04.637Z,14.49
2018-04-13T00:40:04.617Z,14.46
2018-04-13T00:41:04.610Z,14.56
2018-04-13T00:42:04.603Z,14.54
2018-04-13T00:43:04.612Z,14.49
2018-04-13T00:44:04.565Z,14.56
2018-04-13T00:45:04.586Z,14.57
2018-04-13T00:46:04.537Z,14.53
2018-04-13T00:47:04.538Z,14.49
2018-04-13T00:48:04.513Z,14.52
2018-04-13T00:49:04.497Z,14.53
2018-04-13T00:50:04.465Z,14.52
2018-04-13T00:51:04.468Z,14.50
2018-04-13T00:52:04.446Z,14.46
2018-04-13T00:53:04.415Z,14.47
2018-04-13T00:54:04.428Z,14.38
2018-04-13T00:55:04.391Z,14.46
2018-04-13T00:56:04.391Z,14.52
2018-04-13T00:57:04.369Z,14.46
2018-04-13T00:58:04.352Z,14.43
2018-04-13T00:59:04.382Z,14.47
2018-04-13T01:00:04.317Z,14.39
2018-04-13T01:01:04.321Z,14.42
2018-04-13T01:02:04.316Z,14.42
2018-04-13T01:03:04.266Z,14.39
2018-04-13T01:04:04.261Z,14.29
2018-04-13T01:05:04.262Z,14.29
2018-04-13T01:06:04.225Z,14.34
2018-04-13T01:07:04.229Z,14.39
2018-04-13T01:08:04.185Z,14.42
2018-04-13T01:09:04.179Z,14.29
2018-04-13T01:10:04.187Z,14.38
2018-04-13T01:11:04.161Z,14.42
2018-04-13T01:12:04.131Z,14.42
2018-04-13T01:13:04.116Z,14.42
2018-04-13T01:14:04.098Z,14.39
2018-04-13T01:15:04.084Z,14.38
2018-04-13T01:16:04.092Z,14.39
2018-04-13T01:17:04.056Z,14.28
2018-04-13T01:18:04.064Z,14.31
2018-04-13T01:19:04.028Z,14.43
2018-04-13T01:20:04.014Z,14.28
2018-04-13T01:21:03.985Z,14.31
2018-04-13T01:22:03.969Z,14.31
2018-04-13T01:23:03.955Z,14.37
2018-04-13T01:24:03.969Z,14.29
2018-04-13T01:25:03.953Z,14.28
2018-04-13T01:26:03.917Z,14.28
2018-04-13T01:27:03.898Z,14.19
2018-04-13T01:28:03.959Z,14.31
2018-04-13T01:29:03.862Z,14.21
2018-04-13T01:30:03.882Z,14.27
2018-04-13T01:31:04.582Z,14.27
2018-04-13T01:32:03.824Z,14.20
2018-04-13T01:33:03.831Z,14.21
2018-04-13T01:34:03.808Z,14.24
2018-04-13T01:35:03.772Z,14.27
2018-04-13T01:36:03.777Z,14.25
2018-04-13T01:37:03.803Z,14.28
2018-04-13T01:38:03.813Z,14.21
2018-04-13T01:39:03.739Z,14.14
2018-04-13T01:40:03.695Z,14.14
2018-04-13T01:41:03.689Z,14.10
2018-04-13T01:42:04.597Z,14.13
2018-04-13T01:43:03.684Z,14.14
2018-04-13T01:44:03.642Z,14.01
2018-04-13T01:45:03.618Z,14.12
2018-04-13T01:46:03.619Z,14.04
2018-04-13T01:47:03.621Z,14.01
2018-04-13T01:48:03.578Z,14.01
2018-04-13T01:49:03.588Z,14.13
2018-04-13T01:50:03.541Z,14.09
2018-04-13T01:51:03.538Z,14.10
2018-04-13T01:52:03.516Z,14.04
2018-04-13T01:53:03.495Z,14.04
2018-04-13T01:54:03.488Z,14.01
2018-04-13T01:55:03.464Z,14.12
2018-04-13T01:56:03.514Z,14.01
2018-04-13T01:57:03.454Z,14.06
2018-04-13T01:58:03.577Z,14.02
2018-04-13T01:59:03.416Z,13.99
2018-04-13T02:00:03.393Z,14.09
2018-04-13T02:01:03.379Z,14.07
2018-04-13T02:02:03.364Z,14.06
2018-04-13T02:03:03.348Z,14.06
2018-04-13T02:04:03.341Z,13.99
2018-04-13T02:05:03.324Z,13.94
2018-04-13T02:06:03.293Z,13.98
2018-04-13T02:07:03.282Z,13.99
2018-04-13T02:08:03.264Z,13.95
2018-04-13T02:09:03.269Z,13.95
2018-04-13T02:10:03.236Z,13.81
2018-04-13T02:11:03.216Z,13.89
2018-04-13T02:12:03.213Z,13.81
2018-04-13T02:13:03.240Z,13.84
2018-04-13T02:14:03.193Z,13.81
2018-04-13T02:15:03.160Z,13.87
2018-04-13T02:16:03.143Z,13.88
2018-04-13T02:17:03.129Z,13.83
2018-04-13T02:18:03.115Z,13.94
2018-04-13T02:19:03.097Z,13.77
2018-04-13T02:20:03.104Z,13.79
2018-04-13T02:21:03.074Z,13.87
2018-04-13T02:22:03.053Z,13.80
2018-04-13T02:23:03.044Z,13.83
2018-04-13T02:24:03.028Z,13.77
2018-04-13T02:25:03.028Z,13.79
2018-04-13T02:26:03.000Z,13.76
2018-04-13T02:27:02.976Z,13.74
2018-04-13T02:28:02.952Z,13.77
2018-04-13T02:29:02.940Z,13.71
2018-04-13T02:30:02.934Z,13.63
2018-04-13T02:31:02.929Z,13.71
2018-04-13T02:32:02.904Z,13.62
2018-04-13T02:33:02.881Z,13.69
2018-04-13T02:34:02.859Z,13.62
2018-04-13T02:35:02.845Z,13.59
2018-04-13T02:36:02.842Z,13.55
2018-04-13T02:37:02.820Z,13.51
2018-04-13T02:38:02.809Z,13.54
2018-04-13T02:39:02.781Z,13.52
2018-04-13T02:40:02.778Z,13.46
2018-04-13T02:41:02.757Z,13.49
2018-04-13T02:42:02.776Z,13.55
2018-04-13T02:43:02.724Z,13.51
2018-04-13T02:44:02.708Z,13.38
2018-04-13T02:45:02.706Z,13.33
2018-04-13T02:46:02.710Z,13.41
2018-04-13T02:47:02.656Z,13.40
2018-04-13T02:48:02.642Z,13.38
2018-04-13T02:49:02.632Z,13.33
2018-04-13T02:50:02.669Z,13.36
2018-04-13T02:51:02.596Z,13.27
2018-04-13T02:52:02.576Z,13.33
2018-04-13T02:53:02.565Z,13.20
2018-04-13T02:54:02.545Z,13.37
2018-04-13T02:55:02.542Z,13.33
2018-04-13T02:56:02.518Z,13.37
2018-04-13T02:57:02.533Z,13.36
2018-04-13T02:58:02.495Z,13.38
2018-04-13T02:59:02.478Z,13.43
2018-04-13T03:00:02.450Z,13.38
2018-04-13T03:01:02.433Z,13.43
2018-04-13T03:02:02.419Z,13.36
2018-04-13T03:03:02.413Z,13.41
2018-04-13T03:04:02.391Z,13.49
2018-04-13T03:05:02.383Z,13.52
2018-04-13T03:06:02.355Z,13.41
2018-04-13T03:07:02.348Z,13.54
2018-04-13T03:08:02.345Z,13.52
2018-04-13T03:09:02.331Z,13.46
2018-04-13T03:10:02.295Z,13.54
2018-04-13T03:11:02.277Z,13.46
2018-04-13T03:12:02.269Z,13.49
2018-04-13T03:13:02.273Z,13.52
2018-04-13T03:14:02.232Z,13.56
2018-04-13T03:15:02.212Z,13.55
2018-04-13T03:16:02.200Z,13.40
2018-04-13T03:17:02.197Z,13.43
2018-04-13T03:18:02.167Z,13.44
2018-04-13T03:19:02.148Z,13.44
2018-04-13T03:20:02.140Z,13.44
2018-04-13T03:21:02.126Z,13.52
2018-04-13T03:22:02.108Z,13.47
2018-04-13T03:23:02.094Z,13.54
2018-04-13T03:24:02.072Z,13.43
2018-04-13T03:25:02.054Z,13.52
2018-04-13T03:26:02.054Z,13.40
2018-04-13T03:27:02.022Z,13.38
2018-04-13T03:28:02.006Z,13.43
2018-04-13T03:29:01.994Z,13.38
2018-04-13T03:30:01.980Z,13.36
2018-04-13T03:31:01.982Z,13.33
2018-04-13T03:32:01.946Z,13.30
2018-04-13T03:33:01.938Z,13.25
2018-04-13T03:34:01.912Z,13.29
2018-04-13T03:35:01.925Z,13.37
2018-04-13T03:36:01.890Z,13.30
2018-04-13T03:37:01.862Z,13.27
2018-04-13T03:38:01.867Z,13.40
2018-04-13T03:39:01.855Z,13.37
2018-04-13T03:40:01.822Z,13.37
2018-04-13T03:41:01.819Z,13.33
2018-04-13T03:42:01.784Z,13.33
2018-04-13T03:43:01.775Z,13.40
2018-04-13T03:44:01.761Z,13.30
2018-04-13T03:45:01.774Z,13.32
2018-04-13T03:46:01.774Z,13.30
2018-04-13T03:47:01.726Z,13.30
2018-04-13T03:48:01.697Z,13.36
2018-04-13T03:49:01.707Z,13.36
2018-04-13T03:50:01.661Z,13.29
2018-04-13T03:51:01.646Z,13.29
2018-04-13T03:52:01.637Z,13.29
2018-04-13T03:53:01.624Z,13.20
2018-04-13T03:54:01.619Z,13.20
2018-04-13T03:55:01.582Z,13.20
2018-04-13T03:56:01.580Z,13.21
2018-04-13T03:57:01.550Z,13.15
2018-04-13T03:58:01.558Z,13.18
2018-04-13T03:59:01.520Z,13.20
2018-04-13T04:00:01.496Z,13.18
2018-04-13T04:01:01.498Z,13.17
2018-04-13T04:02:01.482Z,13.20
2018-04-13T04:03:01.455Z,13.15
2018-04-13T04:04:01.433Z,13.24
2018-04-13T04:05:01.453Z,13.22
2018-04-13T04:06:01.444Z,13.27
2018-04-13T04:07:01.396Z,13.36
2018-04-13T04:08:01.373Z,13.32
2018-04-13T04:09:01.367Z,13.37
2018-04-13T04:10:01.346Z,13.36
2018-04-13T04:11:01.342Z,13.38
2018-04-13T04:12:01.328Z,13.38
2018-04-13T04:13:01.348Z,13.37
2018-04-13T04:14:01.280Z,13.32
2018-04-13T04:15:01.269Z,13.33
2018-04-13T04:16:01.292Z,13.36
2018-04-13T04:17:01.291Z,13.30
2018-04-13T04:18:01.237Z,13.30
2018-04-13T04:19:01.264Z,13.33
2018-04-13T04:20:01.191Z,13.37
2018-04-13T04:21:01.181Z,13.33
2018-04-13T04:22:01.252Z,13.37
2018-04-13T04:23:01.142Z,13.36
2018-04-13T04:24:01.137Z,13.33
2018-04-13T04:25:01.135Z,13.37
2018-04-13T04:26:01.153Z,13.33
2018-04-13T04:27:01.089Z,13.27
2018-04-13T04:28:01.052Z,13.29
2018-04-13T04:29:01.061Z,13.25
2018-04-13T04:30:01.031Z,13.29
2018-04-13T04:31:01.003Z,13.27
2018-04-13T04:32:00.998Z,13.21
2018-04-13T04:33:00.978Z,13.15
2018-04-13T04:34:00.972Z,13.18
2018-04-13T04:35:00.942Z,13.12
2018-04-13T04:36:00.937Z,13.11
2018-04-13T04:37:00.917Z,13.06
2018-04-13T04:38:00.951Z,13.06
2018-04-13T04:39:00.874Z,13.06
2018-04-13T04:40:00.940Z,12.97
2018-04-13T04:41:00.851Z,13.06
2018-04-13T04:42:00.841Z,13.06
2018-04-13T04:43:00.831Z,13.02
2018-04-13T04:44:00.829Z,13.02
2018-04-13T04:45:00.789Z,13.09
2018-04-13T04:46:00.886Z,13.04
2018-04-13T04:47:00.784Z,13.04
2018-04-13T04:48:00.742Z,13.09
2018-04-13T04:49:00.739Z,13.07
2018-04-13T04:50:00.715Z,13.11
2018-04-13T04:51:00.703Z,13.12
2018-04-13T04:52:00.699Z,13.15
2018-04-13T04:53:00.725Z,13.12
2018-04-13T04:54:00.645Z,13.15
2018-04-13T04:55:00.651Z,13.18
2018-04-13T04:56:00.635Z,13.17
2018-04-13T04:57:00.617Z,13.21
2018-04-13T04:58:00.586Z,13.21
2018-04-13T04:59:00.576Z,13.27
2018-04-13T05:00:00.548Z,13.22
2018-04-13T05:01:00.544Z,13.33
2018-04-13T05:02:00.565Z,13.22
2018-04-13T05:03:00.505Z,13.22
2018-04-13T05:04:00.492Z,13.27
2018-04-13T05:05:00.506Z,13.25
2018-04-13T05:06:00.472Z,13.24
2018-04-13T05:07:00.461Z,13.29
2018-04-13T05:08:00.432Z,13.25
2018-04-13T05:09:00.425Z,13.24
2018-04-13T05:10:00.410Z,13.32
2018-04-13T05:11:00.397Z,13.22
2018-04-13T05:12:00.395Z,13.27
2018-04-13T05:13:00.380Z,13.30
2018-04-13T05:14:00.324Z,13.29
2018-04-13T05:15:00.328Z,13.32
2018-04-13T05:16:00.291Z,13.36
2018-04-13T05:17:00.271Z,13.30
2018-04-13T05:18:00.264Z,13.43
2018-04-13T05:19:00.282Z,13.46
2018-04-13T05:20:00.249Z,13.40
2018-04-13T05:21:00.230Z,13.41
2018-04-13T05:22:00.258Z,13.37
2018-04-13T05:23:00.200Z,13.38
2018-04-13T05:24:00.199Z,13.40
2018-04-13T05:25:00.150Z,13.40
2018-04-13T05:26:00.174Z,13.40
2018-04-13T05:27:00.126Z,13.43
2018-04-13T05:28:00.139Z,13.44
2018-04-13T05:29:00.089Z,13.44
2018-04-13T05:30:00.072Z,13.52
2018-04-13T05:31:00.052Z,13.52
2018-04-13T05:32:00.049Z,13.52
2018-04-13T05:33:00.050Z,13.46
2018-04-13T05:34:00.036Z,13.55
2018-04-13T05:35:00.009Z,13.52
2018-04-13T05:35:59.982Z,13.52
2018-04-13T05:36:59.979Z,13.51
2018-04-13T05:37:59.960Z,13.58
2018-04-13T05:38:59.930Z,13.49
2018-04-13T05:39:59.926Z,13.52
2018-04-13T05:40:59.916Z,13.46
2018-04-13T05:41:59.907Z,13.49
2018-04-13T05:42:59.884Z,13.65
2018-04-13T05:43:59.852Z,13.62
2018-04-13T05:44:59.838Z,13.63
2018-04-13T05:45:59.861Z,13.65
2018-04-13T05:46:59.795Z,13.70
2018-04-13T05:47:59.804Z,13.77
2018-04-13T05:48:59.771Z,13.80
2018-04-13T05:49:59.833Z,13.81
2018-04-13T05:50:59.759Z,13.95
2018-04-13T05:51:59.752Z,14.04
2018-04-13T05:52:59.738Z,14.04
2018-04-13T05:53:59.741Z,14.02
2018-04-13T05:54:59.697Z,14.09
2018-04-13T05:55:59.724Z,14.02
2018-04-13T05:56:59.670Z,14.06
2018-04-13T05:57:59.629Z,14.02
2018-04-13T05:58:59.629Z,14.02
2018-04-13T05:59:59.617Z,14.13
2018-04-13T06:00:59.582Z,14.12
2018-04-13T06:01:59.589Z,14.25
2018-04-13T06:02:59.561Z,14.28
2018-04-13T06:03:59.536Z,14.39
2018-04-13T06:04:59.558Z,14.38
2018-04-13T06:05:59.551Z,14.39
2018-04-13T06:06:59.519Z,14.50
2018-04-13T06:07:59.488Z,14.52
2018-04-13T06:08:59.504Z,14.52
2018-04-13T06:09:59.477Z,14.56
2018-04-13T06:10:59.426Z,14.61
2018-04-13T06:11:59.459Z,14.75
2018-04-13T06:13:02.425Z,14.86
2018-04-13T06:13:59.379Z,14.90
2018-04-13T06:14:59.392Z,15.05
2018-04-13T06:15:59.361Z,15.06
2018-04-13T06:16:59.337Z,15.09
2018-04-13T06:17:59.360Z,15.21
2018-04-13T06:18:59.302Z,15.21
2018-04-13T06:19:59.291Z,15.27
2018-04-13T06:20:59.292Z,15.38
2018-04-13T06:21:59.271Z,15.28
2018-04-13T06:22:59.246Z,15.23
2018-04-13T06:23:59.236Z,15.33
2018-04-13T06:24:59.239Z,15.28
2018-04-13T06:25:59.231Z,15.26
2018-04-13T06:26:59.231Z,15.27
2018-04-13T06:27:59.197Z,15.26
2018-04-13T06:28:59.156Z,15.38
2018-04-13T06:29:59.182Z,15.41
2018-04-13T06:30:59.134Z,15.49
2018-04-13T06:31:59.226Z,15.61
2018-04-13T06:32:59.137Z,15.67
2018-04-13T06:33:59.142Z,15.68
2018-04-13T06:34:59.061Z,15.70
2018-04-13T06:35:59.064Z,15.81
2018-04-13T06:36:59.048Z,15.75
2018-04-13T06:37:59.063Z,15.68
2018-04-13T06:38:59.005Z,15.67
2018-04-13T06:39:58.996Z,15.64
2018-04-13T06:40:59.010Z,15.70
2018-04-13T06:41:58.991Z,15.68
2018-04-13T06:42:58.992Z,15.60
2018-04-13T06:43:58.963Z,15.61
2018-04-13T06:44:58.928Z,15.59
2018-04-13T06:45:58.919Z,15.48
2018-04-13T06:46:58.920Z,15.45
2018-04-13T06:47:58.904Z,15.49
2018-04-13T06:48:58.908Z,15.36
2018-04-13T06:49:58.863Z,15.42
2018-04-13T06:50:58.845Z,15.38
2018-04-13T06:51:58.830Z,15.17
2018-04-13T06:52:58.821Z,15.21
2018-04-13T06:53:58.798Z,15.21
2018-04-13T06:54:58.790Z,15.28
2018-04-13T06:55:58.762Z,15.30
2018-04-13T06:56:58.766Z,15.26
2018-04-13T06:57:58.733Z,15.23
2018-04-13T06:58:58.722Z,15.39
2018-04-13T06:59:58.771Z,15.30
2018-04-13T07:00:58.720Z,15.41
2018-04-13T07:01:58.683Z,15.45
2018-04-13T07:02:58.666Z,15.66
2018-04-13T07:03:58.678Z,15.66
2018-04-13T07:04:58.647Z,15.68
2018-04-13T07:05:58.623Z,15.89
2018-04-13T07:06:58.611Z,15.88
2018-04-13T07:07:58.634Z,15.89
2018-04-13T07:08:58.592Z,15.97
2018-04-13T07:09:58.633Z,16.11
2018-04-13T07:10:58.591Z,16.27
2018-04-13T07:11:58.538Z,16.30
2018-04-13T07:12:58.559Z,16.37
2018-04-13T07:13:58.556Z,16.27
2018-04-13T07:14:58.497Z,16.41
2018-04-13T07:15:58.489Z,16.38
2018-04-13T07:16:58.488Z,16.49
2018-04-13T07:17:58.486Z,16.53
2018-04-13T07:18:58.468Z,16.49
2018-04-13T07:19:58.429Z,16.48
2018-04-13T07:20:58.447Z,16.31
2018-04-13T07:21:58.413Z,16.23
2018-04-13T07:22:58.376Z,16.06
2018-04-13T07:23:58.412Z,16.07
2018-04-13T07:24:58.384Z,16.09
2018-04-13T07:25:58.340Z,16.25
2018-04-13T07:26:58.339Z,16.31
2018-04-13T07:27:58.340Z,16.34
2018-04-13T07:28:58.324Z,16.42
2018-04-13T07:29:58.332Z,16.56
2018-04-13T07:30:58.303Z,16.53
2018-04-13T07:31:58.660Z,16.67
2018-04-13T07:32:58.247Z,16.67
2018-04-13T07:33:58.272Z,16.62
2018-04-13T07:34:58.239Z,16.53
2018-04-13T07:35:58.270Z,16.55
2018-04-13T07:36:58.202Z,16.49
2018-04-13T07:37:58.226Z,16.50
2018-04-13T07:38:58.196Z,16.50
2018-04-13T07:39:58.183Z,16.55
2018-04-13T07:40:58.127Z,16.50
2018-04-13T07:41:58.175Z,16.67
2018-04-13T07:42:58.124Z,16.63
2018-04-13T07:43:58.106Z,16.60
2018-04-13T07:44:58.113Z,16.60
2018-04-13T07:45:58.105Z,16.60
2018-04-13T07:46:58.085Z,16.58
2018-04-13T07:47:58.080Z,16.49
2018-04-13T07:48:58.048Z,16.48
2018-04-13T07:49:58.037Z,16.41
2018-04-13T07:50:58.175Z,16.34
2018-04-13T07:51:58.010Z,16.33
2018-04-13T07:52:58.049Z,16.38
2018-04-13T07:53:57.999Z,16.53
2018-04-13T07:54:57.962Z,16.68
2018-04-13T07:55:57.989Z,16.63
2018-04-13T07:56:58.031Z,16.65
2018-04-13T07:57:57.917Z,16.68
2018-04-13T07:58:57.905Z,16.85
2018-04-13T07:59:57.939Z,16.80
2018-04-13T08:00:57.888Z,16.80
2018-04-13T08:01:57.875Z,16.85
2018-04-13T08:02:58.022Z,16.74
2018-04-13T08:03:57.849Z,16.74
2018-04-13T08:04:57.875Z,16.71
2018-04-13T08:05:57.799Z,16.86
2018-04-13T08:06:57.839Z,16.96
2018-04-13T08:07:57.805Z,16.96
2018-04-13T08:08:57.787Z,16.98
2018-04-13T08:09:57.781Z,17.13
2018-04-13T08:10:57.772Z,17.08
2018-04-13T08:11:57.710Z,17.10
2018-04-13T08:13:00.737Z,16.98
2018-04-13T08:13:57.693Z,16.96
2018-04-13T08:14:57.698Z,16.99
2018-04-13T08:15:57.690Z,16.92
2018-04-13T08:16:57.733Z,16.95
2018-04-13T08:17:57.666Z,16.96
2018-04-13T08:18:57.637Z,16.95
2018-04-13T08:19:57.664Z,16.95
2018-04-13T08:20:57.620Z,16.88
2018-04-13T08:21:57.596Z,16.88
2018-04-13T08:22:57.593Z,16.95
2018-04-13T08:23:57.625Z,16.99
2018-04-13T08:24:57.553Z,16.88
2018-04-13T08:25:57.551Z,16.90
2018-04-13T08:26:57.539Z,16.86
2018-04-13T08:27:57.607Z,16.85
2018-04-13T08:28:57.538Z,16.75
2018-04-13T08:29:57.493Z,16.63
2018-04-13T08:30:57.501Z,16.88
2018-04-13T08:31:57.498Z,16.89
2018-04-13T08:32:57.462Z,16.92
2018-04-13T08:33:57.464Z,16.96
2018-04-13T08:34:57.435Z,17.07
2018-04-13T08:35:57.440Z,17.13
2018-04-13T08:36:57.397Z,17.14
2018-04-13T08:37:57.380Z,16.92
2018-04-13T08:38:57.387Z,16.95
2018-04-13T08:39:57.366Z,16.95
2018-04-13T08:40:57.354Z,16.99
2018-04-13T08:41:57.399Z,17.11
2018-04-13T08:42:57.373Z,17.17
2018-04-13T08:43:57.351Z,17.26
2018-04-13T08:44:57.288Z,17.23
2018-04-13T08:45:57.314Z,17.30
2018-04-13T08:46:57.275Z,17.46
2018-04-13T08:47:57.261Z,17.41
2018-04-13T08:48:57.365Z,17.48
2018-04-13T08:49:57.260Z,17.50
2018-04-13T08:50:57.527Z,17.47
2018-04-13T08:51:57.222Z,17.43
2018-04-13T08:52:57.248Z,17.51
2018-04-13T08:53:57.247Z,17.38
2018-04-13T08:54:57.215Z,17.33
2018-04-13T08:55:57.171Z,17.30
2018-04-13T08:56:57.181Z,17.17
2018-04-13T08:57:57.238Z,17.28
2018-04-13T08:58:57.134Z,17.25
2018-04-13T08:59:57.153Z,17.32
2018-04-13T09:00:57.115Z,17.35
2018-04-13T09:01:57.123Z,17.47
2018-04-13T09:02:57.140Z,17.46
2018-04-13T09:03:57.084Z,17.51
2018-04-13T09:04:57.043Z,17.51
2018-04-13T09:05:57.028Z,17.41
2018-04-13T09:06:57.069Z,17.53
2018-04-13T09:07:56.997Z,17.62
2018-04-13T09:08:57.059Z,17.62
2018-04-13T09:09:57.171Z,17.55
2018-04-13T09:10:56.973Z,17.63
2018-04-13T09:11:57.059Z,17.69
2018-04-13T09:12:57.333Z,17.78
2018-04-13T09:13:56.982Z,17.82
2018-04-13T09:14:56.934Z,17.88
2018-04-13T09:15:56.922Z,18.09
2018-04-13T09:16:56.898Z,18.07
2018-04-13T09:17:56.935Z,18.06
2018-04-13T09:18:56.947Z,18.10
2018-04-13T09:19:56.860Z,18.34
2018-04-13T09:20:56.874Z,18.37
2018-04-13T09:21:56.817Z,18.43
2018-04-13T09:22:56.831Z,18.62
2018-04-13T09:23:56.830Z,18.73
2018-04-13T09:24:56.835Z,18.77
2018-04-13T09:25:56.791Z,18.87
2018-04-13T09:26:56.799Z,19.06
2018-04-13T09:27:56.840Z,19.08
2018-04-13T09:28:56.794Z,18.99
2018-04-13T09:29:56.749Z,19.10
2018-04-13T09:30:56.724Z,19.25
2018-04-13T09:31:56.742Z,19.31
2018-04-13T09:32:56.723Z,19.35
2018-04-13T09:33:56.687Z,19.40
2018-04-13T09:34:56.667Z,19.43
2018-04-13T09:35:56.656Z,19.25
2018-04-13T09:36:56.667Z,19.06
2018-04-13T09:37:56.652Z,19.02
2018-04-13T09:38:56.625Z,19.01
2018-04-13T09:39:56.636Z,18.99
2018-04-13T09:40:56.751Z,19.06
2018-04-13T09:41:56.623Z,19.11
2018-04-13T09:42:56.608Z,19.13
2018-04-13T09:43:56.599Z,19.10
2018-04-13T09:44:56.571Z,19.21
2018-04-13T09:45:56.538Z,19.01
2018-04-13T09:46:56.621Z,18.98
2018-04-13T09:47:56.508Z,18.92
2018-04-13T09:48:56.592Z,18.99
2018-04-13T09:49:56.512Z,19.17
2018-04-13T09:50:56.547Z,19.25
2018-04-13T09:51:56.492Z,19.32
2018-04-13T09:52:56.494Z,19.25
2018-04-13T09:53:56.448Z,19.32
2018-04-13T09:54:56.451Z,19.29
2018-04-13T09:55:56.422Z,19.24
2018-04-13T09:56:56.418Z,19.13
2018-04-13T09:57:56.416Z,19.20
2018-04-13T09:58:56.388Z,19.20
2018-04-13T09:59:56.402Z,19.10
2018-04-13T10:00:56.383Z,18.99
2018-04-13T10:01:56.427Z,18.99
2018-04-13T10:02:56.358Z,18.95
2018-04-13T10:03:56.386Z,19.01
2018-04-13T10:04:56.512Z,19.02
2018-04-13T10:05:56.373Z,18.91
2018-04-13T10:06:56.327Z,18.99
2018-04-13T10:07:56.333Z,18.76
2018-04-13T10:08:56.323Z,18.65
2018-04-13T10:09:56.373Z,18.62
2018-04-13T10:10:56.262Z,18.67
2018-04-13T10:11:56.282Z,18.73
2018-04-13T10:12:56.255Z,18.87
2018-04-13T10:13:56.229Z,19.06
2018-04-13T10:14:56.226Z,19.10
2018-04-13T10:15:56.262Z,19.13
2018-04-13T10:16:56.289Z,19.01
2018-04-13T10:17:56.187Z,19.02
2018-04-13T10:18:56.188Z,19.02
2018-04-13T10:19:56.178Z,19.10
2018-04-13T10:20:56.142Z,19.24
2018-04-13T10:21:56.161Z,19.31
2018-04-13T10:22:56.127Z,19.36
2018-04-13T10:23:56.195Z,19.17
2018-04-13T10:24:56.139Z,19.10
2018-04-13T10:25:56.081Z,19.15
2018-04-13T10:26:56.169Z,19.08
2018-04-13T10:27:56.166Z,19.11
2018-04-13T10:28:56.107Z,19.21
2018-04-13T10:29:56.085Z,19.17
2018-04-13T10:30:56.081Z,19.20
2018-04-13T10:31:56.066Z,19.14
2018-04-13T10:32:56.087Z,19.05
2018-04-13T10:33:56.011Z,18.90
2018-04-13T10:34:55.991Z,18.76
2018-04-13T10:35:56.006Z,18.70
2018-04-13T10:36:55.978Z,18.80
2018-04-13T10:37:55.982Z,18.76
2018-04-13T10:38:55.964Z,18.79
2018-04-13T10:39:56.201Z,18.86
2018-04-13T10:40:55.996Z,19.01
2018-04-13T10:41:56.044Z,18.79
2018-04-13T10:42:55.910Z,18.82
2018-04-13T10:43:55.970Z,18.82
2018-04-13T10:44:55.892Z,18.87
2018-04-13T10:45:55.874Z,18.97
2018-04-13T10:46:55.913Z,19.01
2018-04-13T10:47:55.832Z,18.86
2018-04-13T10:48:55.984Z,18.94
2018-04-13T10:49:55.834Z,19.01
2018-04-13T10:50:55.828Z,19.11
2018-04-13T10:51:55.903Z,19.36
2018-04-13T10:52:55.813Z,19.42
2018-04-13T10:53:55.760Z,19.57
2018-04-13T10:54:55.790Z,19.75
2018-04-13T10:55:55.756Z,19.57
2018-04-13T10:56:55.790Z,19.63
2018-04-13T10:57:55.758Z,19.48
2018-04-13T10:58:55.734Z,19.53
2018-04-13T10:59:55.751Z,19.40
2018-04-13T11:00:55.843Z,19.46
2018-04-13T11:01:55.691Z,19.61
2018-04-13T11:02:55.719Z,19.53
2018-04-13T11:03:55.656Z,19.38
2018-04-13T11:04:55.658Z,19.33
2018-04-13T11:05:55.704Z,19.25
2018-04-13T11:06:55.643Z,19.23
2018-04-13T11:07:55.645Z,19.08
2018-04-13T11:08:55.646Z,19.18
2018-04-13T11:09:55.620Z,19.23
2018-04-13T11:10:55.583Z,19.24
2018-04-13T11:11:55.633Z,19.24
2018-04-13T11:12:55.672Z,19.25
2018-04-13T11:13:55.594Z,19.24
2018-04-13T11:14:55.589Z,19.25
2018-04-13T11:15:55.547Z,19.11
2018-04-13T11:16:55.530Z,19.17
2018-04-13T11:17:55.547Z,19.20
2018-04-13T11:18:55.526Z,19.17
2018-04-13T11:19:55.504Z,19.11
2018-04-13T11:20:55.486Z,19.14
2018-04-13T11:21:55.515Z,19.25
2018-04-13T11:22:55.467Z,19.32
2018-04-13T11:23:55.432Z,19.33
2018-04-13T11:24:55.445Z,19.42
2018-04-13T11:25:55.453Z,19.43
2018-04-13T11:26:55.426Z,19.39
2018-04-13T11:27:55.395Z,19.35
2018-04-13T11:28:55.396Z,19.40
2018-04-13T11:29:55.390Z,19.57
2018-04-13T11:30:55.415Z,19.63
2018-04-13T11:31:55.339Z,19.69
2018-04-13T11:32:55.368Z,19.69
2018-04-13T11:33:55.346Z,19.55
2018-04-13T11:34:55.322Z,19.43
2018-04-13T11:35:55.365Z,19.42
2018-04-13T11:36:55.323Z,19.54
2018-04-13T11:37:55.300Z,19.54
2018-04-13T11:38:55.282Z,19.36
2018-04-13T11:39:55.336Z,19.33
2018-04-13T11:40:55.263Z,19.32
2018-04-13T11:41:55.253Z,19.31
2018-04-13T11:42:55.355Z,19.32
2018-04-13T11:43:55.298Z,19.46
2018-04-13T11:44:55.204Z,19.54
2018-04-13T11:45:55.202Z,19.54
2018-04-13T11:46:55.206Z,19.35
2018-04-13T11:47:55.224Z,19.36
2018-04-13T11:48:55.219Z,19.28
2018-04-13T11:49:55.146Z,19.29
2018-04-13T11:50:55.198Z,19.31
2018-04-13T11:51:55.139Z,19.35
2018-04-13T11:52:55.118Z,19.39
2018-04-13T11:53:55.106Z,19.32
2018-04-13T11:54:55.090Z,19.32
2018-04-13T11:55:55.079Z,19.31
2018-04-13T11:56:55.060Z,19.35
2018-04-13T11:57:55.069Z,19.32
2018-04-13T11:58:55.162Z,19.36
2018-04-13T11:59:55.086Z,19.29
2018-04-13T12:00:55.028Z,19.13
2018-04-13T12:01:55.030Z,19.10
2018-04-13T12:02:55.004Z,18.95
2018-04-13T12:03:55.023Z,18.94
2018-04-13T12:04:55.003Z,18.87
2018-04-13T12:05:55.016Z,18.72
2018-04-13T12:06:55.009Z,18.77
2018-04-13T12:07:54.963Z,18.73
2018-04-13T12:08:54.937Z,18.73
2018-04-13T12:09:54.941Z,18.67
2018-04-13T12:10:54.968Z,18.65
2018-04-13T12:11:54.926Z,18.62
2018-04-13T12:12:54.942Z,18.65
2018-04-13T12:13:54.880Z,18.58
2018-04-13T12:14:54.969Z,18.61
2018-04-13T12:15:54.879Z,18.57
2018-04-13T12:16:54.889Z,18.50
2018-04-13T12:17:54.834Z,18.33
2018-04-13T12:18:54.847Z,18.28
2018-04-13T12:19:54.808Z,18.36
2018-04-13T12:20:54.828Z,18.28
2018-04-13T12:21:54.811Z,18.21
2018-04-13T12:22:54.780Z,18.22
2018-04-13T12:23:54.759Z,18.10
2018-04-13T12:24:54.754Z,18.03
2018-04-13T12:25:54.753Z,18.03
2018-04-13T12:26:54.757Z,18.03
2018-04-13T12:27:54.746Z,17.94
2018-04-13T12:28:54.687Z,18.00
2018-04-13T12:29:54.699Z,18.02
2018-04-13T12:30:54.667Z,18.03
2018-04-13T12:31:54.705Z,18.00
2018-04-13T12:32:54.682Z,18.12
2018-04-13T12:33:54.656Z,18.02
2018-04-13T12:34:54.657Z,17.94
2018-04-13T12:35:54.622Z,18.00
2018-04-13T12:36:54.617Z,18.07
2018-04-13T12:37:54.607Z,18.03
2018-04-13T12:38:54.584Z,18.12
2018-04-13T12:39:54.584Z,18.00
2018-04-13T12:40:54.565Z,18.02
2018-04-13T12:42:54.551Z,17.94
2018-04-13T12:43:54.522Z,17.97
2018-04-13T12:44:54.505Z,17.99
2018-04-13T12:45:54.516Z,18.03
2018-04-13T12:46:54.519Z,18.03
2018-04-13T12:47:54.476Z,18.02
2018-04-13T12:49:15.462Z,17.82
2018-04-13T12:49:54.516Z,17.88
2018-04-13T12:50:54.435Z,17.81
2018-04-13T12:51:54.433Z,17.78
2018-04-13T12:52:54.409Z,17.66